sensor_id;sensor_type;location;lat;lon;timestamp;P1;durP1;ratioP1;P2;durP2;ratioP2
15699;SDS011;7950;42.744;23.174;2022-12-18T00:00:44;10.50;;;7.33;;
15699;SDS011;7950;42.744;23.174;2022-12-18T00:03:14;9.77;;;7.20;;
15699;SDS011;7950;42.744;23.174;2022-12-18T00:05:46;10.97;;;8.07;;
15699;SDS011;7950;42.744;23.174;2022-12-18T00:08:15;9.33;;;6.80;;
15699;SDS011;7950;42.744;23.174;2022-12-18T00:10:44;9.00;;;7.00;;
15699;SDS011;7950;42.744;23.174;2022-12-18T00:13:13;9.97;;;7.77;;
15699;SDS011;7950;42.744;23.174;2022-12-18T00:15:43;9.97;;;7.23;;
15699;SDS011;7950;42.744;23.174;2022-12-18T00:18:11;9.20;;;7.20;;
15699;SDS011;7950;42.744;23.174;2022-12-18T00:20:45;9.97;;;7.43;;
15699;SDS011;7950;42.744;23.174;2022-12-18T00:23:14;10.43;;;7.63;;
15699;SDS011;7950;42.744;23.174;2022-12-18T00:25:42;10.77;;;7.60;;
15699;SDS011;7950;42.744;23.174;2022-12-18T00:28:11;10.10;;;7.23;;
15699;SDS011;7950;42.744;23.174;2022-12-18T00:30:44;10.63;;;7.07;;
15699;SDS011;7950;42.744;23.174;2022-12-18T00:33:12;9.80;;;7.10;;
15699;SDS011;7950;42.744;23.174;2022-12-18T00:35:44;9.70;;;7.70;;
15699;SDS011;7950;42.744;23.174;2022-12-18T00:38:13;10.10;;;7.40;;
15699;SDS011;7950;42.744;23.174;2022-12-18T00:40:41;10.13;;;6.97;;
15699;SDS011;7950;42.744;23.174;2022-12-18T00:43:10;7.90;;;6.40;;
15699;SDS011;7950;42.744;23.174;2022-12-18T00:48:53;7.90;;;6.80;;
15699;SDS011;7950;42.744;23.174;2022-12-18T00:51:21;10.03;;;7.30;;
15699;SDS011;7950;42.744;23.174;2022-12-18T00:53:50;10.43;;;7.63;;
15699;SDS011;7950;42.744;23.174;2022-12-18T00:56:18;11.83;;;8.60;;
15699;SDS011;7950;42.744;23.174;2022-12-18T00:58:47;10.87;;;8.27;;
15699;SDS011;7950;42.744;23.174;2022-12-18T01:01:17;12.00;;;8.43;;
15699;SDS011;7950;42.744;23.174;2022-12-18T01:03:46;12.03;;;8.17;;
15699;SDS011;7950;42.744;23.174;2022-12-18T01:06:14;11.13;;;8.70;;
15699;SDS011;7950;42.744;23.174;2022-12-18T01:08:44;14.37;;;10.63;;
15699;SDS011;7950;42.744;23.174;2022-12-18T01:11:13;11.80;;;8.50;;
15699;SDS011;7950;42.744;23.174;2022-12-18T01:13:43;12.87;;;9.20;;
15699;SDS011;7950;42.744;23.174;2022-12-18T01:16:13;10.60;;;7.80;;
15699;SDS011;7950;42.744;23.174;2022-12-18T01:18:44;10.50;;;8.03;;
15699;SDS011;7950;42.744;23.174;2022-12-18T01:21:13;10.30;;;7.50;;
15699;SDS011;7950;42.744;23.174;2022-12-18T01:23:43;11.00;;;8.37;;
15699;SDS011;7950;42.744;23.174;2022-12-18T01:29:05;11.50;;;8.07;;
15699;SDS011;7950;42.744;23.174;2022-12-18T01:31:34;10.63;;;7.63;;
15699;SDS011;7950;42.744;23.174;2022-12-18T01:34:04;11.00;;;7.90;;
15699;SDS011;7950;42.744;23.174;2022-12-18T01:36:34;12.07;;;8.03;;
15699;SDS011;7950;42.744;23.174;2022-12-18T01:39:06;9.97;;;7.77;;
15699;SDS011;7950;42.744;23.174;2022-12-18T01:41:36;9.73;;;7.23;;
15699;SDS011;7950;42.744;23.174;2022-12-18T01:47:23;8.80;;;6.93;;
15699;SDS011;7950;42.744;23.174;2022-12-18T01:49:56;10.50;;;7.60;;
15699;SDS011;7950;42.744;23.174;2022-12-18T01:52:27;10.63;;;7.70;;
15699;SDS011;7950;42.744;23.174;2022-12-18T01:54:58;9.43;;;7.17;;
15699;SDS011;7950;42.744;23.174;2022-12-18T01:57:28;9.70;;;6.77;;
15699;SDS011;7950;42.744;23.174;2022-12-18T01:59:57;10.13;;;7.43;;
15699;SDS011;7950;42.744;23.174;2022-12-18T02:02:28;9.67;;;7.10;;
15699;SDS011;7950;42.744;23.174;2022-12-18T02:04:59;10.87;;;8.10;;
15699;SDS011;7950;42.744;23.174;2022-12-18T02:07:32;9.03;;;7.27;;
15699;SDS011;7950;42.744;23.174;2022-12-18T02:10:10;11.03;;;7.67;;
15699;SDS011;7950;42.744;23.174;2022-12-18T02:12:45;10.50;;;7.70;;
15699;SDS011;7950;42.744;23.174;2022-12-18T02:15:26;9.83;;;7.07;;
15699;SDS011;7950;42.744;23.174;2022-12-18T02:18:02;12.57;;;7.97;;
15699;SDS011;7950;42.744;23.174;2022-12-18T02:20:39;10.73;;;7.80;;
15699;SDS011;7950;42.744;23.174;2022-12-18T02:23:16;11.03;;;7.30;;
15699;SDS011;7950;42.744;23.174;2022-12-18T02:26:10;8.77;;;6.93;;
15699;SDS011;7950;42.744;23.174;2022-12-18T02:28:47;11.13;;;7.67;;
15699;SDS011;7950;42.744;23.174;2022-12-18T02:31:21;10.90;;;7.60;;
15699;SDS011;7950;42.744;23.174;2022-12-18T02:33:53;8.97;;;6.63;;
15699;SDS011;7950;42.744;23.174;2022-12-18T02:36:23;8.80;;;6.87;;
15699;SDS011;7950;42.744;23.174;2022-12-18T02:39:03;9.23;;;7.20;;
15699;SDS011;7950;42.744;23.174;2022-12-18T02:41:36;9.07;;;6.97;;
15699;SDS011;7950;42.744;23.174;2022-12-18T02:44:07;9.70;;;7.03;;
15699;SDS011;7950;42.744;23.174;2022-12-18T02:46:37;12.43;;;7.43;;
15699;SDS011;7950;42.744;23.174;2022-12-18T02:49:11;9.33;;;7.47;;
15699;SDS011;7950;42.744;23.174;2022-12-18T02:51:52;9.43;;;6.73;;
15699;SDS011;7950;42.744;23.174;2022-12-18T02:54:26;12.17;;;7.70;;
15699;SDS011;7950;42.744;23.174;2022-12-18T02:57:14;11.63;;;6.80;;
15699;SDS011;7950;42.744;23.174;2022-12-18T02:59:48;11.30;;;7.47;;
15699;SDS011;7950;42.744;23.174;2022-12-18T03:02:23;8.70;;;7.23;;
15699;SDS011;7950;42.744;23.174;2022-12-18T03:04:59;10.67;;;7.57;;
15699;SDS011;7950;42.744;23.174;2022-12-18T03:07:37;10.47;;;6.90;;
15699;SDS011;7950;42.744;23.174;2022-12-18T03:13:08;9.47;;;6.57;;
15699;SDS011;7950;42.744;23.174;2022-12-18T03:15:41;8.30;;;6.60;;
15699;SDS011;7950;42.744;23.174;2022-12-18T03:18:14;7.97;;;6.30;;
15699;SDS011;7950;42.744;23.174;2022-12-18T03:23:24;10.00;;;6.57;;
15699;SDS011;7950;42.744;23.174;2022-12-18T03:25:57;9.87;;;6.73;;
15699;SDS011;7950;42.744;23.174;2022-12-18T03:28:35;9.27;;;7.23;;
15699;SDS011;7950;42.744;23.174;2022-12-18T03:31:08;10.33;;;6.73;;
15699;SDS011;7950;42.744;23.174;2022-12-18T03:33:40;10.00;;;6.93;;
15699;SDS011;7950;42.744;23.174;2022-12-18T03:36:14;12.07;;;7.57;;
15699;SDS011;7950;42.744;23.174;2022-12-18T03:41:37;10.17;;;7.57;;
15699;SDS011;7950;42.744;23.174;2022-12-18T03:44:13;11.73;;;7.47;;
15699;SDS011;7950;42.744;23.174;2022-12-18T03:46:49;10.83;;;7.57;;
15699;SDS011;7950;42.744;23.174;2022-12-18T03:49:32;12.07;;;8.63;;
15699;SDS011;7950;42.744;23.174;2022-12-18T03:52:07;12.40;;;8.93;;
15699;SDS011;7950;42.744;23.174;2022-12-18T03:54:39;11.73;;;8.73;;
15699;SDS011;7950;42.744;23.174;2022-12-18T04:00:13;11.47;;;7.97;;
15699;SDS011;7950;42.744;23.174;2022-12-18T04:02:44;14.17;;;8.80;;
15699;SDS011;7950;42.744;23.174;2022-12-18T04:05:16;13.30;;;8.43;;
15699;SDS011;7950;42.744;23.174;2022-12-18T04:07:46;11.57;;;8.40;;
15699;SDS011;7950;42.744;23.174;2022-12-18T04:10:16;12.67;;;8.87;;
15699;SDS011;7950;42.744;23.174;2022-12-18T04:12:45;13.40;;;8.67;;
15699;SDS011;7950;42.744;23.174;2022-12-18T04:15:15;13.30;;;9.97;;
15699;SDS011;7950;42.744;23.174;2022-12-18T04:17:47;13.27;;;8.73;;
15699;SDS011;7950;42.744;23.174;2022-12-18T04:20:16;13.17;;;9.30;;
15699;SDS011;7950;42.744;23.174;2022-12-18T04:22:45;15.03;;;9.50;;
15699;SDS011;7950;42.744;23.174;2022-12-18T04:25:13;17.13;;;9.57;;
15699;SDS011;7950;42.744;23.174;2022-12-18T04:27:42;14.40;;;9.63;;
15699;SDS011;7950;42.744;23.174;2022-12-18T04:30:11;15.27;;;9.63;;
15699;SDS011;7950;42.744;23.174;2022-12-18T04:32:41;17.43;;;10.63;;
15699;SDS011;7950;42.744;23.174;2022-12-18T04:35:17;17.87;;;11.23;;
15699;SDS011;7950;42.744;23.174;2022-12-18T04:37:46;15.17;;;10.17;;
15699;SDS011;7950;42.744;23.174;2022-12-18T04:40:14;17.63;;;10.73;;
15699;SDS011;7950;42.744;23.174;2022-12-18T04:45:31;17.43;;;11.30;;
15699;SDS011;7950;42.744;23.174;2022-12-18T04:48:02;16.77;;;10.60;;
15699;SDS011;7950;42.744;23.174;2022-12-18T04:50:44;15.90;;;10.87;;
15699;SDS011;7950;42.744;23.174;2022-12-18T04:53:12;16.47;;;10.87;;
15699;SDS011;7950;42.744;23.174;2022-12-18T04:55:41;17.17;;;12.13;;
15699;SDS011;7950;42.744;23.174;2022-12-18T04:58:09;19.37;;;12.43;;
15699;SDS011;7950;42.744;23.174;2022-12-18T05:00:38;19.13;;;11.93;;
15699;SDS011;7950;42.744;23.174;2022-12-18T05:03:08;17.37;;;11.70;;
15699;SDS011;7950;42.744;23.174;2022-12-18T05:05:37;19.53;;;12.27;;
15699;SDS011;7950;42.744;23.174;2022-12-18T05:08:05;16.87;;;11.53;;
15699;SDS011;7950;42.744;23.174;2022-12-18T05:10:34;20.17;;;11.77;;
15699;SDS011;7950;42.744;23.174;2022-12-18T05:13:04;16.27;;;11.33;;
15699;SDS011;7950;42.744;23.174;2022-12-18T05:15:32;18.77;;;12.77;;
15699;SDS011;7950;42.744;23.174;2022-12-18T05:18:01;19.10;;;12.50;;
15699;SDS011;7950;42.744;23.174;2022-12-18T05:20:32;20.40;;;12.67;;
15699;SDS011;7950;42.744;23.174;2022-12-18T05:23:01;19.27;;;12.40;;
15699;SDS011;7950;42.744;23.174;2022-12-18T05:25:30;17.27;;;12.17;;
15699;SDS011;7950;42.744;23.174;2022-12-18T05:27:58;19.43;;;11.60;;
15699;SDS011;7950;42.744;23.174;2022-12-18T05:30:26;17.60;;;11.50;;
15699;SDS011;7950;42.744;23.174;2022-12-18T05:32:55;20.03;;;11.93;;
15699;SDS011;7950;42.744;23.174;2022-12-18T05:35:23;18.07;;;12.43;;
15699;SDS011;7950;42.744;23.174;2022-12-18T05:37:54;22.20;;;13.30;;
15699;SDS011;7950;42.744;23.174;2022-12-18T05:40:23;19.93;;;12.87;;
15699;SDS011;7950;42.744;23.174;2022-12-18T05:42:53;20.93;;;12.27;;
15699;SDS011;7950;42.744;23.174;2022-12-18T05:45:21;20.03;;;13.03;;
15699;SDS011;7950;42.744;23.174;2022-12-18T05:47:49;21.07;;;12.17;;
15699;SDS011;7950;42.744;23.174;2022-12-18T05:50:19;18.73;;;11.90;;
15699;SDS011;7950;42.744;23.174;2022-12-18T05:52:47;19.73;;;12.07;;
15699;SDS011;7950;42.744;23.174;2022-12-18T05:55:17;19.53;;;12.33;;
15699;SDS011;7950;42.744;23.174;2022-12-18T05:57:46;19.37;;;11.70;;
15699;SDS011;7950;42.744;23.174;2022-12-18T06:00:15;17.90;;;11.70;;
15699;SDS011;7950;42.744;23.174;2022-12-18T06:02:46;19.27;;;12.67;;
15699;SDS011;7950;42.744;23.174;2022-12-18T06:05:15;18.13;;;12.03;;
15699;SDS011;7950;42.744;23.174;2022-12-18T06:07:43;19.03;;;11.60;;
15699;SDS011;7950;42.744;23.174;2022-12-18T06:10:11;19.03;;;12.27;;
15699;SDS011;7950;42.744;23.174;2022-12-18T06:12:42;16.73;;;11.50;;
15699;SDS011;7950;42.744;23.174;2022-12-18T06:15:10;18.43;;;11.97;;
15699;SDS011;7950;42.744;23.174;2022-12-18T06:17:39;17.70;;;11.93;;
15699;SDS011;7950;42.744;23.174;2022-12-18T06:20:12;21.40;;;11.93;;
15699;SDS011;7950;42.744;23.174;2022-12-18T06:22:41;18.20;;;11.97;;
15699;SDS011;7950;42.744;23.174;2022-12-18T06:25:09;20.67;;;13.03;;
15699;SDS011;7950;42.744;23.174;2022-12-18T06:27:37;22.10;;;11.90;;
15699;SDS011;7950;42.744;23.174;2022-12-18T06:30:09;18.07;;;12.03;;
15699;SDS011;7950;42.744;23.174;2022-12-18T06:32:39;18.07;;;11.90;;
15699;SDS011;7950;42.744;23.174;2022-12-18T06:35:07;16.33;;;10.53;;
15699;SDS011;7950;42.744;23.174;2022-12-18T06:37:36;15.90;;;10.60;;
15699;SDS011;7950;42.744;23.174;2022-12-18T06:40:05;17.00;;;10.00;;
15699;SDS011;7950;42.744;23.174;2022-12-18T06:42:35;15.13;;;10.83;;
15699;SDS011;7950;42.744;23.174;2022-12-18T06:45:04;18.13;;;11.50;;
15699;SDS011;7950;42.744;23.174;2022-12-18T06:47:34;18.13;;;11.13;;
15699;SDS011;7950;42.744;23.174;2022-12-18T06:50:02;18.50;;;12.43;;
15699;SDS011;7950;42.744;23.174;2022-12-18T06:52:31;20.90;;;12.83;;
15699;SDS011;7950;42.744;23.174;2022-12-18T06:55:01;19.00;;;12.87;;
15699;SDS011;7950;42.744;23.174;2022-12-18T06:57:30;20.83;;;12.80;;
15699;SDS011;7950;42.744;23.174;2022-12-18T06:59:59;22.97;;;14.57;;
15699;SDS011;7950;42.744;23.174;2022-12-18T07:02:39;20.33;;;13.73;;
15699;SDS011;7950;42.744;23.174;2022-12-18T07:05:08;26.87;;;14.50;;
15699;SDS011;7950;42.744;23.174;2022-12-18T07:07:37;22.03;;;13.20;;
15699;SDS011;7950;42.744;23.174;2022-12-18T07:10:05;24.27;;;14.60;;
15699;SDS011;7950;42.744;23.174;2022-12-18T07:12:34;21.73;;;14.27;;
15699;SDS011;7950;42.744;23.174;2022-12-18T07:15:03;27.20;;;15.67;;
15699;SDS011;7950;42.744;23.174;2022-12-18T07:17:32;27.23;;;15.77;;
15699;SDS011;7950;42.744;23.174;2022-12-18T07:20:02;25.47;;;14.47;;
15699;SDS011;7950;42.744;23.174;2022-12-18T07:22:49;23.20;;;13.57;;
15699;SDS011;7950;42.744;23.174;2022-12-18T07:25:21;24.47;;;14.97;;
15699;SDS011;7950;42.744;23.174;2022-12-18T07:27:50;24.50;;;15.73;;
15699;SDS011;7950;42.744;23.174;2022-12-18T07:30:19;24.10;;;15.57;;
15699;SDS011;7950;42.744;23.174;2022-12-18T07:32:47;25.33;;;15.20;;
15699;SDS011;7950;42.744;23.174;2022-12-18T07:35:17;27.27;;;15.37;;
15699;SDS011;7950;42.744;23.174;2022-12-18T07:37:50;24.30;;;14.47;;
15699;SDS011;7950;42.744;23.174;2022-12-18T07:40:19;24.27;;;14.37;;
15699;SDS011;7950;42.744;23.174;2022-12-18T07:45:41;26.50;;;15.97;;
15699;SDS011;7950;42.744;23.174;2022-12-18T07:48:10;28.13;;;15.33;;
15699;SDS011;7950;42.744;23.174;2022-12-18T07:53:47;23.47;;;14.07;;
15699;SDS011;7950;42.744;23.174;2022-12-18T07:56:24;24.83;;;14.60;;
15699;SDS011;7950;42.744;23.174;2022-12-18T07:58:55;21.83;;;13.43;;
15699;SDS011;7950;42.744;23.174;2022-12-18T08:01:24;21.40;;;13.93;;
15699;SDS011;7950;42.744;23.174;2022-12-18T08:03:53;25.77;;;14.57;;
15699;SDS011;7950;42.744;23.174;2022-12-18T08:06:21;24.00;;;15.07;;
15699;SDS011;7950;42.744;23.174;2022-12-18T08:08:52;22.17;;;14.40;;
15699;SDS011;7950;42.744;23.174;2022-12-18T08:11:21;21.37;;;13.80;;
15699;SDS011;7950;42.744;23.174;2022-12-18T08:13:51;24.27;;;14.20;;
15699;SDS011;7950;42.744;23.174;2022-12-18T08:16:19;22.00;;;12.67;;
15699;SDS011;7950;42.744;23.174;2022-12-18T08:18:48;21.23;;;12.80;;
15699;SDS011;7950;42.744;23.174;2022-12-18T08:21:17;22.93;;;13.73;;
15699;SDS011;7950;42.744;23.174;2022-12-18T08:23:49;20.57;;;12.73;;
15699;SDS011;7950;42.744;23.174;2022-12-18T08:26:20;19.33;;;12.30;;
15699;SDS011;7950;42.744;23.174;2022-12-18T08:28:49;19.30;;;12.70;;
15699;SDS011;7950;42.744;23.174;2022-12-18T08:31:20;21.80;;;12.60;;
15699;SDS011;7950;42.744;23.174;2022-12-18T08:33:50;23.07;;;13.13;;
15699;SDS011;7950;42.744;23.174;2022-12-18T08:36:21;21.10;;;12.83;;
15699;SDS011;7950;42.744;23.174;2022-12-18T08:38:53;21.17;;;11.97;;
15699;SDS011;7950;42.744;23.174;2022-12-18T08:41:23;20.77;;;13.03;;
15699;SDS011;7950;42.744;23.174;2022-12-18T08:43:52;18.27;;;12.40;;
15699;SDS011;7950;42.744;23.174;2022-12-18T08:46:38;18.20;;;11.67;;
15699;SDS011;7950;42.744;23.174;2022-12-18T08:49:09;22.23;;;14.40;;
15699;SDS011;7950;42.744;23.174;2022-12-18T08:51:37;20.20;;;13.20;;
15699;SDS011;7950;42.744;23.174;2022-12-18T08:54:07;19.07;;;12.90;;
15699;SDS011;7950;42.744;23.174;2022-12-18T08:56:39;18.77;;;11.97;;
15699;SDS011;7950;42.744;23.174;2022-12-18T08:59:08;20.27;;;12.83;;
15699;SDS011;7950;42.744;23.174;2022-12-18T09:02:14;19.03;;;11.13;;
15699;SDS011;7950;42.744;23.174;2022-12-18T09:04:50;17.57;;;11.67;;
15699;SDS011;7950;42.744;23.174;2022-12-18T09:07:23;20.43;;;11.93;;
15699;SDS011;7950;42.744;23.174;2022-12-18T09:09:51;18.00;;;12.07;;
15699;SDS011;7950;42.744;23.174;2022-12-18T09:12:21;21.07;;;11.90;;
15699;SDS011;7950;42.744;23.174;2022-12-18T09:14:49;17.47;;;12.13;;
15699;SDS011;7950;42.744;23.174;2022-12-18T09:17:17;21.00;;;12.57;;
15699;SDS011;7950;42.744;23.174;2022-12-18T09:19:46;17.50;;;11.20;;
15699;SDS011;7950;42.744;23.174;2022-12-18T09:22:14;19.73;;;12.00;;
15699;SDS011;7950;42.744;23.174;2022-12-18T09:24:42;19.50;;;11.53;;
15699;SDS011;7950;42.744;23.174;2022-12-18T09:27:11;19.40;;;12.00;;
15699;SDS011;7950;42.744;23.174;2022-12-18T09:29:41;17.10;;;11.27;;
15699;SDS011;7950;42.744;23.174;2022-12-18T09:32:09;19.57;;;10.83;;
15699;SDS011;7950;42.744;23.174;2022-12-18T09:34:44;18.77;;;10.93;;
15699;SDS011;7950;42.744;23.174;2022-12-18T09:37:12;22.73;;;12.63;;
15699;SDS011;7950;42.744;23.174;2022-12-18T09:39:41;19.23;;;11.40;;
15699;SDS011;7950;42.744;23.174;2022-12-18T09:42:09;17.43;;;11.00;;
15699;SDS011;7950;42.744;23.174;2022-12-18T09:44:50;18.10;;;11.80;;
15699;SDS011;7950;42.744;23.174;2022-12-18T09:47:21;17.03;;;10.77;;
15699;SDS011;7950;42.744;23.174;2022-12-18T09:49:53;16.83;;;10.57;;
15699;SDS011;7950;42.744;23.174;2022-12-18T09:52:27;17.70;;;10.80;;
15699;SDS011;7950;42.744;23.174;2022-12-18T09:55:01;17.80;;;10.83;;
15699;SDS011;7950;42.744;23.174;2022-12-18T09:57:38;18.57;;;11.40;;
15699;SDS011;7950;42.744;23.174;2022-12-18T10:00:15;16.83;;;10.83;;
15699;SDS011;7950;42.744;23.174;2022-12-18T10:02:47;16.50;;;10.80;;
15699;SDS011;7950;42.744;23.174;2022-12-18T10:05:28;17.13;;;11.83;;
15699;SDS011;7950;42.744;23.174;2022-12-18T10:08:02;17.53;;;11.17;;
15699;SDS011;7950;42.744;23.174;2022-12-18T10:10:40;17.10;;;11.20;;
15699;SDS011;7950;42.744;23.174;2022-12-18T10:13:22;17.67;;;11.07;;
15699;SDS011;7950;42.744;23.174;2022-12-18T10:16:00;18.73;;;11.07;;
15699;SDS011;7950;42.744;23.174;2022-12-18T10:18:40;17.53;;;10.83;;
15699;SDS011;7950;42.744;23.174;2022-12-18T10:21:54;21.43;;;13.40;;
15699;SDS011;7950;42.744;23.174;2022-12-18T10:27:29;19.57;;;11.60;;
15699;SDS011;7950;42.744;23.174;2022-12-18T10:29:59;19.10;;;11.73;;
15699;SDS011;7950;42.744;23.174;2022-12-18T10:32:34;17.33;;;11.23;;
15699;SDS011;7950;42.744;23.174;2022-12-18T10:35:04;17.70;;;11.03;;
15699;SDS011;7950;42.744;23.174;2022-12-18T10:37:39;16.40;;;10.40;;
15699;SDS011;7950;42.744;23.174;2022-12-18T10:40:28;17.07;;;10.43;;
15699;SDS011;7950;42.744;23.174;2022-12-18T10:43:04;16.97;;;10.50;;
15699;SDS011;7950;42.744;23.174;2022-12-18T10:45:38;17.37;;;10.50;;
15699;SDS011;7950;42.744;23.174;2022-12-18T10:48:18;17.80;;;11.40;;
15699;SDS011;7950;42.744;23.174;2022-12-18T10:50:49;16.60;;;10.47;;
15699;SDS011;7950;42.744;23.174;2022-12-18T10:56:41;18.00;;;10.77;;
15699;SDS011;7950;42.744;23.174;2022-12-18T10:59:12;17.00;;;10.53;;
15699;SDS011;7950;42.744;23.174;2022-12-18T11:01:46;18.37;;;10.17;;
15699;SDS011;7950;42.744;23.174;2022-12-18T11:04:19;15.43;;;9.73;;
15699;SDS011;7950;42.744;23.174;2022-12-18T11:06:53;15.63;;;9.70;;
15699;SDS011;7950;42.744;23.174;2022-12-18T11:09:24;16.03;;;9.13;;
15699;SDS011;7950;42.744;23.174;2022-12-18T11:11:54;15.43;;;8.83;;
15699;SDS011;7950;42.744;23.174;2022-12-18T11:14:26;12.97;;;8.47;;
15699;SDS011;7950;42.744;23.174;2022-12-18T11:16:56;13.80;;;8.23;;
15699;SDS011;7950;42.744;23.174;2022-12-18T11:19:53;15.50;;;9.43;;
15699;SDS011;7950;42.744;23.174;2022-12-18T11:22:24;17.60;;;9.53;;
15699;SDS011;7950;42.744;23.174;2022-12-18T11:24:55;15.03;;;9.77;;
15699;SDS011;7950;42.744;23.174;2022-12-18T11:27:49;18.20;;;9.83;;
15699;SDS011;7950;42.744;23.174;2022-12-18T11:30:21;16.27;;;10.60;;
15699;SDS011;7950;42.744;23.174;2022-12-18T11:32:52;15.80;;;10.23;;
15699;SDS011;7950;42.744;23.174;2022-12-18T11:35:28;15.53;;;10.23;;
15699;SDS011;7950;42.744;23.174;2022-12-18T11:38:04;18.33;;;10.07;;
15699;SDS011;7950;42.744;23.174;2022-12-18T11:40:42;16.13;;;9.97;;
15699;SDS011;7950;42.744;23.174;2022-12-18T11:43:14;16.20;;;10.50;;
15699;SDS011;7950;42.744;23.174;2022-12-18T11:45:47;16.70;;;10.20;;
15699;SDS011;7950;42.744;23.174;2022-12-18T11:48:21;16.50;;;10.20;;
15699;SDS011;7950;42.744;23.174;2022-12-18T11:50:55;16.70;;;9.83;;
15699;SDS011;7950;42.744;23.174;2022-12-18T11:53:25;17.30;;;11.20;;
15699;SDS011;7950;42.744;23.174;2022-12-18T11:55:56;16.87;;;10.60;;
15699;SDS011;7950;42.744;23.174;2022-12-18T12:01:34;16.87;;;10.73;;
15699;SDS011;7950;42.744;23.174;2022-12-18T12:04:17;16.83;;;10.50;;
15699;SDS011;7950;42.744;23.174;2022-12-18T12:07:49;18.80;;;11.30;;
15699;SDS011;7950;42.744;23.174;2022-12-18T12:10:31;16.70;;;10.60;;
15699;SDS011;7950;42.744;23.174;2022-12-18T12:13:15;19.20;;;12.57;;
15699;SDS011;7950;42.744;23.174;2022-12-18T12:15:57;17.17;;;10.70;;
15699;SDS011;7950;42.744;23.174;2022-12-18T12:18:37;17.93;;;11.33;;
15699;SDS011;7950;42.744;23.174;2022-12-18T12:21:17;20.30;;;12.17;;
15699;SDS011;7950;42.744;23.174;2022-12-18T12:26:57;18.83;;;11.13;;
15699;SDS011;7950;42.744;23.174;2022-12-18T12:29:37;18.00;;;10.90;;
15699;SDS011;7950;42.744;23.174;2022-12-18T12:32:31;20.83;;;12.20;;
15699;SDS011;7950;42.744;23.174;2022-12-18T12:35:12;16.40;;;11.23;;
15699;SDS011;7950;42.744;23.174;2022-12-18T12:37:51;20.67;;;11.83;;
15699;SDS011;7950;42.744;23.174;2022-12-18T12:40:30;24.60;;;13.03;;
15699;SDS011;7950;42.744;23.174;2022-12-18T12:43:24;17.30;;;10.53;;
15699;SDS011;7950;42.744;23.174;2022-12-18T12:45:57;15.23;;;10.17;;
15699;SDS011;7950;42.744;23.174;2022-12-18T12:48:35;18.57;;;11.20;;
15699;SDS011;7950;42.744;23.174;2022-12-18T12:51:10;18.50;;;11.43;;
15699;SDS011;7950;42.744;23.174;2022-12-18T12:53:43;20.20;;;11.57;;
15699;SDS011;7950;42.744;23.174;2022-12-18T12:56:15;18.13;;;10.90;;
15699;SDS011;7950;42.744;23.174;2022-12-18T12:58:49;20.20;;;12.83;;
15699;SDS011;7950;42.744;23.174;2022-12-18T13:01:28;18.17;;;11.30;;
15699;SDS011;7950;42.744;23.174;2022-12-18T13:04:08;21.63;;;12.27;;
15699;SDS011;7950;42.744;23.174;2022-12-18T13:06:49;21.70;;;13.57;;
15699;SDS011;7950;42.744;23.174;2022-12-18T13:09:21;22.33;;;12.67;;
15699;SDS011;7950;42.744;23.174;2022-12-18T13:11:51;24.97;;;13.13;;
15699;SDS011;7950;42.744;23.174;2022-12-18T13:14:38;19.53;;;11.43;;
15699;SDS011;7950;42.744;23.174;2022-12-18T13:17:28;21.87;;;12.43;;
15699;SDS011;7950;42.744;23.174;2022-12-18T13:20:06;19.63;;;11.13;;
15699;SDS011;7950;42.744;23.174;2022-12-18T13:22:43;18.17;;;10.90;;
15699;SDS011;7950;42.744;23.174;2022-12-18T13:25:29;17.53;;;10.87;;
15699;SDS011;7950;42.744;23.174;2022-12-18T13:30:51;16.80;;;10.40;;
15699;SDS011;7950;42.744;23.174;2022-12-18T13:36:35;16.17;;;9.67;;
15699;SDS011;7950;42.744;23.174;2022-12-18T13:39:11;15.03;;;9.87;;
15699;SDS011;7950;42.744;23.174;2022-12-18T13:45:58;13.47;;;8.73;;
15699;SDS011;7950;42.744;23.174;2022-12-18T13:48:29;13.70;;;8.90;;
15699;SDS011;7950;42.744;23.174;2022-12-18T13:51:01;15.60;;;9.40;;
15699;SDS011;7950;42.744;23.174;2022-12-18T13:53:36;16.13;;;9.97;;
15699;SDS011;7950;42.744;23.174;2022-12-18T13:56:09;16.40;;;10.13;;
15699;SDS011;7950;42.744;23.174;2022-12-18T13:58:43;17.13;;;10.07;;
15699;SDS011;7950;42.744;23.174;2022-12-18T14:01:22;16.57;;;10.13;;
15699;SDS011;7950;42.744;23.174;2022-12-18T14:04:05;15.57;;;9.33;;
15699;SDS011;7950;42.744;23.174;2022-12-18T14:06:37;14.53;;;8.87;;
15699;SDS011;7950;42.744;23.174;2022-12-18T14:09:07;13.03;;;8.97;;
15699;SDS011;7950;42.744;23.174;2022-12-18T14:11:47;13.67;;;8.90;;
15699;SDS011;7950;42.744;23.174;2022-12-18T14:14:17;12.83;;;8.33;;
15699;SDS011;7950;42.744;23.174;2022-12-18T14:16:48;13.47;;;8.20;;
15699;SDS011;7950;42.744;23.174;2022-12-18T14:19:18;12.37;;;8.03;;
15699;SDS011;7950;42.744;23.174;2022-12-18T14:24:45;16.87;;;9.50;;
15699;SDS011;7950;42.744;23.174;2022-12-18T14:27:21;14.37;;;8.77;;
15699;SDS011;7950;42.744;23.174;2022-12-18T14:29:51;15.13;;;8.70;;
15699;SDS011;7950;42.744;23.174;2022-12-18T14:32:21;16.03;;;9.27;;
15699;SDS011;7950;42.744;23.174;2022-12-18T14:34:50;16.47;;;9.83;;
15699;SDS011;7950;42.744;23.174;2022-12-18T14:37:21;14.73;;;9.03;;
15699;SDS011;7950;42.744;23.174;2022-12-18T14:39:52;17.83;;;10.23;;
15699;SDS011;7950;42.744;23.174;2022-12-18T14:42:21;15.40;;;10.00;;
15699;SDS011;7950;42.744;23.174;2022-12-18T14:48:12;15.27;;;8.73;;
15699;SDS011;7950;42.744;23.174;2022-12-18T14:50:54;11.07;;;7.37;;
15699;SDS011;7950;42.744;23.174;2022-12-18T14:53:29;12.40;;;7.73;;
15699;SDS011;7950;42.744;23.174;2022-12-18T14:56:12;12.37;;;8.07;;
15699;SDS011;7950;42.744;23.174;2022-12-18T14:58:46;16.17;;;10.27;;
15699;SDS011;7950;42.744;23.174;2022-12-18T15:01:19;13.40;;;8.50;;
15699;SDS011;7950;42.744;23.174;2022-12-18T15:03:52;13.57;;;8.60;;
15699;SDS011;7950;42.744;23.174;2022-12-18T15:06:24;16.57;;;8.97;;
15699;SDS011;7950;42.744;23.174;2022-12-18T15:08:57;15.30;;;9.27;;
15699;SDS011;7950;42.744;23.174;2022-12-18T15:11:26;16.70;;;10.17;;
15699;SDS011;7950;42.744;23.174;2022-12-18T15:14:22;16.03;;;9.87;;
15699;SDS011;7950;42.744;23.174;2022-12-18T15:16:57;14.33;;;9.53;;
15699;SDS011;7950;42.744;23.174;2022-12-18T15:19:32;14.00;;;9.63;;
15699;SDS011;7950;42.744;23.174;2022-12-18T15:22:14;16.97;;;10.13;;
15699;SDS011;7950;42.744;23.174;2022-12-18T15:24:47;18.57;;;11.00;;
15699;SDS011;7950;42.744;23.174;2022-12-18T15:27:21;16.57;;;9.90;;
15699;SDS011;7950;42.744;23.174;2022-12-18T15:32:49;15.87;;;9.57;;
15699;SDS011;7950;42.744;23.174;2022-12-18T15:35:21;18.40;;;10.33;;
15699;SDS011;7950;42.744;23.174;2022-12-18T15:37:51;16.23;;;9.90;;
15699;SDS011;7950;42.744;23.174;2022-12-18T15:40:20;15.87;;;9.67;;
15699;SDS011;7950;42.744;23.174;2022-12-18T15:42:51;17.37;;;9.97;;
15699;SDS011;7950;42.744;23.174;2022-12-18T15:45:39;17.13;;;10.50;;
15699;SDS011;7950;42.744;23.174;2022-12-18T15:48:11;18.80;;;10.20;;
15699;SDS011;7950;42.744;23.174;2022-12-18T15:50:48;18.17;;;10.83;;
15699;SDS011;7950;42.744;23.174;2022-12-18T15:53:17;16.53;;;10.57;;
15699;SDS011;7950;42.744;23.174;2022-12-18T15:55:46;18.40;;;11.20;;
15699;SDS011;7950;42.744;23.174;2022-12-18T15:58:32;19.10;;;11.03;;
15699;SDS011;7950;42.744;23.174;2022-12-18T16:01:00;16.40;;;10.20;;
15699;SDS011;7950;42.744;23.174;2022-12-18T16:03:29;18.07;;;11.70;;